sensor_id;sensor_type;location;lat;lon;timestamp;P1;durP1;ratioP1;P2;durP2;ratioP2
3801;SDS011;1916;51.798;12.246;2024-03-23T00:54:50;19.13;;;6.50;;
3801;SDS011;1916;51.798;12.246;2024-03-23T00:56:51;19.10;;;5.80;;
3801;SDS011;1916;51.798;12.246;2024-03-23T00:58:52;17.50;;;5.63;;
3801;SDS011;1916;51.798;12.246;2024-03-23T01:00:53;13.83;;;5.40;;
3801;SDS011;1916;51.798;12.246;2024-03-23T01:02:54;28.37;;;10.03;;
3801;SDS011;1916;51.798;12.246;2024-03-23T01:04:55;21.63;;;9.87;;
3801;SDS011;1916;51.798;12.246;2024-03-23T01:06:56;18.70;;;9.17;;
3801;SDS011;1916;51.798;12.246;2024-03-23T01:08:58;19.60;;;8.20;;
3801;SDS011;1916;51.798;12.246;2024-03-23T01:10:59;16.90;;;6.90;;
3801;SDS011;1916;51.798;12.246;2024-03-23T01:13:02;16.03;;;7.60;;
3801;SDS011;1916;51.798;12.246;2024-03-23T01:15:03;17.70;;;6.00;;
3801;SDS011;1916;51.798;12.246;2024-03-23T01:17:04;17.40;;;6.03;;
3801;SDS011;1916;51.798;12.246;2024-03-23T01:19:06;16.80;;;6.80;;
3801;SDS011;1916;51.798;12.246;2024-03-23T01:21:07;19.00;;;6.30;;
3801;SDS011;1916;51.798;12.246;2024-03-23T01:23:08;22.03;;;6.70;;
3801;SDS011;1916;51.798;12.246;2024-03-23T01:25:09;22.93;;;5.90;;
3801;SDS011;1916;51.798;12.246;2024-03-23T01:27:10;18.63;;;6.53;;
3801;SDS011;1916;51.798;12.246;2024-03-23T01:29:11;14.00;;;5.60;;
3801;SDS011;1916;51.798;12.246;2024-03-23T01:31:12;12.90;;;6.30;;
3801;SDS011;1916;51.798;12.246;2024-03-23T01:33:14;19.93;;;6.53;;
3801;SDS011;1916;51.798;12.246;2024-03-23T01:35:15;18.07;;;6.40;;
3801;SDS011;1916;51.798;12.246;2024-03-23T01:37:16;14.13;;;6.37;;
3801;SDS011;1916;51.798;12.246;2024-03-23T01:39:17;11.03;;;5.60;;
3801;SDS011;1916;51.798;12.246;2024-03-23T01:41:18;16.20;;;5.27;;
3801;SDS011;1916;51.798;12.246;2024-03-23T01:43:20;22.67;;;6.10;;
3801;SDS011;1916;51.798;12.246;2024-03-23T01:45:21;21.47;;;6.30;;
3801;SDS011;1916;51.798;12.246;2024-03-23T01:47:22;18.43;;;5.73;;
3801;SDS011;1916;51.798;12.246;2024-03-23T01:49:24;13.47;;;5.53;;
3801;SDS011;1916;51.798;12.246;2024-03-23T01:51:25;23.10;;;5.53;;
3801;SDS011;1916;51.798;12.246;2024-03-23T01:53:27;21.27;;;6.10;;
3801;SDS011;1916;51.798;12.246;2024-03-23T01:55:29;13.40;;;5.07;;
3801;SDS011;1916;51.798;12.246;2024-03-23T01:57:30;18.27;;;6.57;;
3801;SDS011;1916;51.798;12.246;2024-03-23T01:59:31;23.13;;;6.77;;
3801;SDS011;1916;51.798;12.246;2024-03-23T02:01:34;15.20;;;5.60;;
3801;SDS011;1916;51.798;12.246;2024-03-23T02:03:36;13.13;;;6.30;;
3801;SDS011;1916;51.798;12.246;2024-03-23T02:05:38;16.27;;;6.03;;
3801;SDS011;1916;51.798;12.246;2024-03-23T02:07:39;22.07;;;5.67;;
3801;SDS011;1916;51.798;12.246;2024-03-23T02:09:42;15.33;;;5.00;;
3801;SDS011;1916;51.798;12.246;2024-03-23T02:11:43;24.40;;;6.30;;
3801;SDS011;1916;51.798;12.246;2024-03-23T02:13:45;17.43;;;5.57;;
3801;SDS011;1916;51.798;12.246;2024-03-23T02:15:46;19.33;;;6.70;;
3801;SDS011;1916;51.798;12.246;2024-03-23T02:17:47;21.60;;;6.43;;
3801;SDS011;1916;51.798;12.246;2024-03-23T02:19:48;18.40;;;6.47;;
3801;SDS011;1916;51.798;12.246;2024-03-23T02:21:49;16.00;;;5.30;;
3801;SDS011;1916;51.798;12.246;2024-03-23T02:23:51;10.37;;;5.30;;
3801;SDS011;1916;51.798;12.246;2024-03-23T02:25:53;20.13;;;5.80;;
3801;SDS011;1916;51.798;12.246;2024-03-23T02:27:54;22.30;;;5.80;;
3801;SDS011;1916;51.798;12.246;2024-03-23T02:29:56;16.23;;;5.00;;
3801;SDS011;1916;51.798;12.246;2024-03-23T02:31:57;15.93;;;5.20;;
3801;SDS011;1916;51.798;12.246;2024-03-23T02:33:59;16.50;;;5.10;;
3801;SDS011;1916;51.798;12.246;2024-03-23T02:36:00;13.90;;;5.50;;
3801;SDS011;1916;51.798;12.246;2024-03-23T02:38:02;20.47;;;5.73;;
3801;SDS011;1916;51.798;12.246;2024-03-23T02:40:03;13.90;;;5.37;;
3801;SDS011;1916;51.798;12.246;2024-03-23T02:42:04;15.17;;;5.73;;
3801;SDS011;1916;51.798;12.246;2024-03-23T02:44:06;18.10;;;5.43;;
3801;SDS011;1916;51.798;12.246;2024-03-23T02:46:07;14.37;;;5.50;;
3801;SDS011;1916;51.798;12.246;2024-03-23T02:48:08;17.33;;;5.47;;
3801;SDS011;1916;51.798;12.246;2024-03-23T02:50:09;16.97;;;6.40;;
3801;SDS011;1916;51.798;12.246;2024-03-23T02:52:10;15.40;;;5.13;;
3801;SDS011;1916;51.798;12.246;2024-03-23T02:54:12;16.63;;;5.37;;
3801;SDS011;1916;51.798;12.246;2024-03-23T02:56:13;17.37;;;5.60;;
3801;SDS011;1916;51.798;12.246;2024-03-23T02:58:16;13.00;;;5.53;;
3801;SDS011;1916;51.798;12.246;2024-03-23T03:00:17;15.37;;;5.50;;
3801;SDS011;1916;51.798;12.246;2024-03-23T03:02:19;23.60;;;5.57;;
3801;SDS011;1916;51.798;12.246;2024-03-23T03:04:21;19.20;;;5.83;;
3801;SDS011;1916;51.798;12.246;2024-03-23T03:06:25;16.60;;;5.97;;
3801;SDS011;1916;51.798;12.246;2024-03-23T03:08:26;17.07;;;6.20;;
3801;SDS011;1916;51.798;12.246;2024-03-23T03:10:27;23.20;;;7.13;;
3801;SDS011;1916;51.798;12.246;2024-03-23T03:12:29;13.33;;;5.97;;
3801;SDS011;1916;51.798;12.246;2024-03-23T03:14:31;19.60;;;5.70;;
3801;SDS011;1916;51.798;12.246;2024-03-23T03:16:32;15.93;;;5.50;;
3801;SDS011;1916;51.798;12.246;2024-03-23T03:18:33;24.60;;;7.10;;
3801;SDS011;1916;51.798;12.246;2024-03-23T03:20:36;16.20;;;5.67;;
3801;SDS011;1916;51.798;12.246;2024-03-23T03:22:40;15.90;;;6.10;;
3801;SDS011;1916;51.798;12.246;2024-03-23T03:24:41;14.07;;;5.43;;
3801;SDS011;1916;51.798;12.246;2024-03-23T03:26:43;11.53;;;6.07;;
3801;SDS011;1916;51.798;12.246;2024-03-23T03:28:44;14.33;;;5.93;;
3801;SDS011;1916;51.798;12.246;2024-03-23T03:30:49;17.53;;;5.60;;
3801;SDS011;1916;51.798;12.246;2024-03-23T03:32:51;12.33;;;6.10;;
3801;SDS011;1916;51.798;12.246;2024-03-23T03:34:54;15.60;;;5.50;;
3801;SDS011;1916;51.798;12.246;2024-03-23T03:36:55;16.53;;;6.23;;
3801;SDS011;1916;51.798;12.246;2024-03-23T03:38:57;14.40;;;5.70;;
3801;SDS011;1916;51.798;12.246;2024-03-23T03:40:58;23.43;;;6.70;;
3801;SDS011;1916;51.798;12.246;2024-03-23T03:43:00;18.10;;;6.13;;
3801;SDS011;1916;51.798;12.246;2024-03-23T03:45:01;22.00;;;5.83;;
3801;SDS011;1916;51.798;12.246;2024-03-23T03:47:02;21.90;;;6.10;;
3801;SDS011;1916;51.798;12.246;2024-03-23T03:49:03;18.30;;;5.13;;
3801;SDS011;1916;51.798;12.246;2024-03-23T03:51:04;15.10;;;6.20;;
3801;SDS011;1916;51.798;12.246;2024-03-23T03:53:05;13.13;;;5.17;;
3801;SDS011;1916;51.798;12.246;2024-03-23T03:55:12;16.70;;;5.70;;
3801;SDS011;1916;51.798;12.246;2024-03-23T03:57:14;16.97;;;7.17;;
3801;SDS011;1916;51.798;12.246;2024-03-23T03:59:15;16.53;;;6.93;;
3801;SDS011;1916;51.798;12.246;2024-03-23T04:01:16;21.43;;;6.87;;
3801;SDS011;1916;51.798;12.246;2024-03-23T04:03:17;13.13;;;6.27;;
3801;SDS011;1916;51.798;12.246;2024-03-23T04:05:18;19.77;;;7.37;;
3801;SDS011;1916;51.798;12.246;2024-03-23T04:07:20;23.70;;;6.20;;
3801;SDS011;1916;51.798;12.246;2024-03-23T04:09:23;25.57;;;7.57;;
3801;SDS011;1916;51.798;12.246;2024-03-23T04:11:24;17.67;;;6.07;;
3801;SDS011;1916;51.798;12.246;2024-03-23T04:13:26;20.30;;;6.67;;
3801;SDS011;1916;51.798;12.246;2024-03-23T04:15:27;16.43;;;6.47;;
3801;SDS011;1916;51.798;12.246;2024-03-23T04:17:28;22.80;;;6.27;;
3801;SDS011;1916;51.798;12.246;2024-03-23T04:19:32;19.70;;;6.17;;
3801;SDS011;1916;51.798;12.246;2024-03-23T04:21:34;21.57;;;6.93;;
3801;SDS011;1916;51.798;12.246;2024-03-23T04:23:36;19.70;;;6.73;;
3801;SDS011;1916;51.798;12.246;2024-03-23T04:25:37;21.80;;;5.90;;
3801;SDS011;1916;51.798;12.246;2024-03-23T04:27:39;21.47;;;6.40;;
3801;SDS011;1916;51.798;12.246;2024-03-23T04:29:41;22.07;;;6.63;;
3801;SDS011;1916;51.798;12.246;2024-03-23T04:31:42;28.70;;;6.57;;
3801;SDS011;1916;51.798;12.246;2024-03-23T04:33:43;19.13;;;6.07;;
3801;SDS011;1916;51.798;12.246;2024-03-23T04:35:44;23.43;;;7.27;;
3801;SDS011;1916;51.798;12.246;2024-03-23T04:37:50;22.80;;;6.67;;
3801;SDS011;1916;51.798;12.246;2024-03-23T04:39:53;20.63;;;7.10;;
3801;SDS011;1916;51.798;12.246;2024-03-23T04:41:54;16.93;;;6.27;;
3801;SDS011;1916;51.798;12.246;2024-03-23T04:43:55;19.30;;;6.80;;
3801;SDS011;1916;51.798;12.246;2024-03-23T04:45:56;19.93;;;7.30;;
3801;SDS011;1916;51.798;12.246;2024-03-23T04:47:57;21.90;;;7.63;;
3801;SDS011;1916;51.798;12.246;2024-03-23T04:49:58;23.83;;;7.47;;
3801;SDS011;1916;51.798;12.246;2024-03-23T04:52:00;13.00;;;5.50;;
3801;SDS011;1916;51.798;12.246;2024-03-23T04:54:01;12.63;;;5.50;;
3801;SDS011;1916;51.798;12.246;2024-03-23T04:56:06;18.20;;;5.67;;
3801;SDS011;1916;51.798;12.246;2024-03-23T04:58:07;16.43;;;6.20;;
3801;SDS011;1916;51.798;12.246;2024-03-23T05:00:09;16.20;;;6.00;;
3801;SDS011;1916;51.798;12.246;2024-03-23T05:02:17;17.67;;;6.83;;
3801;SDS011;1916;51.798;12.246;2024-03-23T05:04:18;14.30;;;5.50;;
3801;SDS011;1916;51.798;12.246;2024-03-23T05:06:19;10.20;;;5.60;;
3801;SDS011;1916;51.798;12.246;2024-03-23T05:08:20;19.97;;;5.90;;
3801;SDS011;1916;51.798;12.246;2024-03-23T05:10:21;12.60;;;5.70;;
3801;SDS011;1916;51.798;12.246;2024-03-23T05:12:23;14.60;;;5.37;;
3801;SDS011;1916;51.798;12.246;2024-03-23T05:14:24;15.10;;;5.80;;
3801;SDS011;1916;51.798;12.246;2024-03-23T05:16:26;16.47;;;4.60;;
3801;SDS011;1916;51.798;12.246;2024-03-23T05:18:27;13.00;;;4.77;;
3801;SDS011;1916;51.798;12.246;2024-03-23T05:20:29;16.13;;;4.93;;
3801;SDS011;1916;51.798;12.246;2024-03-23T05:22:30;16.60;;;4.80;;
3801;SDS011;1916;51.798;12.246;2024-03-23T05:24:31;16.13;;;5.40;;
3801;SDS011;1916;51.798;12.246;2024-03-23T05:26:33;15.80;;;5.03;;
3801;SDS011;1916;51.798;12.246;2024-03-23T05:28:35;10.77;;;4.37;;
3801;SDS011;1916;51.798;12.246;2024-03-23T05:30:36;14.93;;;4.60;;
3801;SDS011;1916;51.798;12.246;2024-03-23T05:32:37;9.20;;;4.60;;
3801;SDS011;1916;51.798;12.246;2024-03-23T05:34:41;11.70;;;5.20;;
3801;SDS011;1916;51.798;12.246;2024-03-23T05:36:42;14.67;;;5.03;;
3801;SDS011;1916;51.798;12.246;2024-03-23T05:38:43;14.73;;;7.07;;
3801;SDS011;1916;51.798;12.246;2024-03-23T05:40:52;13.03;;;6.27;;
3801;SDS011;1916;51.798;12.246;2024-03-23T05:42:54;12.30;;;5.70;;
3801;SDS011;1916;51.798;12.246;2024-03-23T05:44:56;9.50;;;5.33;;
3801;SDS011;1916;51.798;12.246;2024-03-23T05:46:57;17.37;;;6.00;;
3801;SDS011;1916;51.798;12.246;2024-03-23T05:49:00;11.20;;;5.83;;
3801;SDS011;1916;51.798;12.246;2024-03-23T05:51:02;12.23;;;5.23;;
3801;SDS011;1916;51.798;12.246;2024-03-23T05:53:03;11.13;;;4.70;;
3801;SDS011;1916;51.798;12.246;2024-03-23T05:55:06;11.67;;;6.00;;
3801;SDS011;1916;51.798;12.246;2024-03-23T05:57:07;13.70;;;5.90;;
3801;SDS011;1916;51.798;12.246;2024-03-23T05:59:08;13.37;;;6.17;;
3801;SDS011;1916;51.798;12.246;2024-03-23T06:01:09;15.07;;;6.50;;
3801;SDS011;1916;51.798;12.246;2024-03-23T06:03:11;13.27;;;6.77;;
3801;SDS011;1916;51.798;12.246;2024-03-23T06:05:12;10.07;;;5.63;;
3801;SDS011;1916;51.798;12.246;2024-03-23T06:07:13;14.27;;;6.20;;
3801;SDS011;1916;51.798;12.246;2024-03-23T06:09:15;19.03;;;6.23;;
3801;SDS011;1916;51.798;12.246;2024-03-23T06:11:16;8.90;;;5.77;;
3801;SDS011;1916;51.798;12.246;2024-03-23T06:13:17;13.00;;;6.00;;
3801;SDS011;1916;51.798;12.246;2024-03-23T06:15:19;12.20;;;6.70;;
3801;SDS011;1916;51.798;12.246;2024-03-23T06:17:20;10.90;;;6.27;;
3801;SDS011;1916;51.798;12.246;2024-03-23T06:19:21;12.00;;;7.40;;
3801;SDS011;1916;51.798;12.246;2024-03-23T06:21:22;19.60;;;6.63;;
3801;SDS011;1916;51.798;12.246;2024-03-23T06:23:24;13.37;;;6.90;;
3801;SDS011;1916;51.798;12.246;2024-03-23T06:25:25;12.23;;;6.30;;
3801;SDS011;1916;51.798;12.246;2024-03-23T06:27:26;13.00;;;6.10;;
3801;SDS011;1916;51.798;12.246;2024-03-23T06:29:28;12.10;;;6.17;;
3801;SDS011;1916;51.798;12.246;2024-03-23T06:31:29;11.20;;;6.10;;
3801;SDS011;1916;51.798;12.246;2024-03-23T06:33:30;8.03;;;5.60;;
3801;SDS011;1916;51.798;12.246;2024-03-23T06:35:31;10.40;;;6.30;;
3801;SDS011;1916;51.798;12.246;2024-03-23T06:37:32;11.63;;;5.10;;
3801;SDS011;1916;51.798;12.246;2024-03-23T06:39:33;11.17;;;5.90;;
3801;SDS011;1916;51.798;12.246;2024-03-23T06:41:35;19.47;;;6.47;;
3801;SDS011;1916;51.798;12.246;2024-03-23T06:43:36;17.53;;;5.80;;
3801;SDS011;1916;51.798;12.246;2024-03-23T06:45:38;13.50;;;6.00;;
3801;SDS011;1916;51.798;12.246;2024-03-23T06:47:39;18.87;;;5.87;;
3801;SDS011;1916;51.798;12.246;2024-03-23T06:49:40;18.57;;;6.03;;
3801;SDS011;1916;51.798;12.246;2024-03-23T06:51:41;15.23;;;5.63;;
3801;SDS011;1916;51.798;12.246;2024-03-23T06:53:43;20.40;;;7.27;;
3801;SDS011;1916;51.798;12.246;2024-03-23T06:55:44;15.20;;;6.40;;
3801;SDS011;1916;51.798;12.246;2024-03-23T06:57:51;13.70;;;6.20;;
3801;SDS011;1916;51.798;12.246;2024-03-23T06:59:53;11.17;;;5.30;;
3801;SDS011;1916;51.798;12.246;2024-03-23T07:01:54;11.43;;;5.20;;
3801;SDS011;1916;51.798;12.246;2024-03-23T07:03:55;9.63;;;4.60;;
3801;SDS011;1916;51.798;12.246;2024-03-23T07:05:59;9.63;;;5.40;;
3801;SDS011;1916;51.798;12.246;2024-03-23T07:08:00;15.27;;;5.37;;
3801;SDS011;1916;51.798;12.246;2024-03-23T07:10:02;11.33;;;4.90;;
3801;SDS011;1916;51.798;12.246;2024-03-23T07:12:03;9.40;;;4.77;;
3801;SDS011;1916;51.798;12.246;2024-03-23T07:14:05;14.77;;;4.13;;
3801;SDS011;1916;51.798;12.246;2024-03-23T07:16:06;8.20;;;3.97;;
3801;SDS011;1916;51.798;12.246;2024-03-23T07:18:07;17.53;;;4.40;;
3801;SDS011;1916;51.798;12.246;2024-03-23T07:20:08;9.43;;;3.80;;
3801;SDS011;1916;51.798;12.246;2024-03-23T07:22:11;7.13;;;3.63;;
3801;SDS011;1916;51.798;12.246;2024-03-23T07:24:12;5.07;;;3.20;;
3801;SDS011;1916;51.798;12.246;2024-03-23T07:26:13;10.60;;;3.70;;
3801;SDS011;1916;51.798;12.246;2024-03-23T07:28:14;13.30;;;4.00;;
3801;SDS011;1916;51.798;12.246;2024-03-23T07:30:15;6.73;;;4.33;;
3801;SDS011;1916;51.798;12.246;2024-03-23T07:32:16;5.93;;;3.87;;
3801;SDS011;1916;51.798;12.246;2024-03-23T07:34:17;7.20;;;3.50;;
3801;SDS011;1916;51.798;12.246;2024-03-23T07:36:19;6.47;;;3.13;;
3801;SDS011;1916;51.798;12.246;2024-03-23T07:38:20;6.40;;;3.40;;
3801;SDS011;1916;51.798;12.246;2024-03-23T07:40:21;8.10;;;3.63;;
3801;SDS011;1916;51.798;12.246;2024-03-23T07:42:22;8.43;;;3.60;;
3801;SDS011;1916;51.798;12.246;2024-03-23T07:44:23;6.73;;;3.57;;
3801;SDS011;1916;51.798;12.246;2024-03-23T07:46:24;5.20;;;3.47;;
3801;SDS011;1916;51.798;12.246;2024-03-23T07:48:26;5.93;;;3.97;;
3801;SDS011;1916;51.798;12.246;2024-03-23T07:50:27;8.97;;;4.40;;
3801;SDS011;1916;51.798;12.246;2024-03-23T07:52:28;9.33;;;4.80;;
3801;SDS011;1916;51.798;12.246;2024-03-23T07:54:30;7.63;;;3.87;;
3801;SDS011;1916;51.798;12.246;2024-03-23T07:56:31;7.33;;;4.00;;
3801;SDS011;1916;51.798;12.246;2024-03-23T07:58:33;7.03;;;4.63;;
3801;SDS011;1916;51.798;12.246;2024-03-23T08:00:34;9.47;;;4.80;;
3801;SDS011;1916;51.798;12.246;2024-03-23T08:02:35;11.00;;;4.27;;
3801;SDS011;1916;51.798;12.246;2024-03-23T08:04:36;8.63;;;4.03;;
3801;SDS011;1916;51.798;12.246;2024-03-23T08:06:37;8.13;;;4.10;;
3801;SDS011;1916;51.798;12.246;2024-03-23T08:08:39;8.80;;;3.73;;
3801;SDS011;1916;51.798;12.246;2024-03-23T08:10:50;18.13;;;6.20;;
3801;SDS011;1916;51.798;12.246;2024-03-23T08:12:52;13.70;;;10.40;;
3801;SDS011;1916;51.798;12.246;2024-03-23T08:14:53;15.97;;;7.23;;
3801;SDS011;1916;51.798;12.246;2024-03-23T08:16:54;19.10;;;7.10;;
3801;SDS011;1916;51.798;12.246;2024-03-23T08:18:55;9.07;;;5.20;;
3801;SDS011;1916;51.798;12.246;2024-03-23T08:21:00;11.70;;;5.17;;
3801;SDS011;1916;51.798;12.246;2024-03-23T08:23:02;8.37;;;4.90;;
3801;SDS011;1916;51.798;12.246;2024-03-23T08:25:03;8.33;;;5.50;;
3801;SDS011;1916;51.798;12.246;2024-03-23T08:27:05;10.50;;;5.80;;
3801;SDS011;1916;51.798;12.246;2024-03-23T08:29:06;17.20;;;10.17;;
3801;SDS011;1916;51.798;12.246;2024-03-23T08:31:09;13.20;;;10.20;;
3801;SDS011;1916;51.798;12.246;2024-03-23T08:33:11;25.97;;;15.30;;
3801;SDS011;1916;51.798;12.246;2024-03-23T08:35:12;13.13;;;7.60;;
3801;SDS011;1916;51.798;12.246;2024-03-23T08:37:13;17.47;;;8.00;;
3801;SDS011;1916;51.798;12.246;2024-03-23T08:39:14;11.30;;;5.67;;
3801;SDS011;1916;51.798;12.246;2024-03-23T08:41:15;8.60;;;5.20;;
3801;SDS011;1916;51.798;12.246;2024-03-23T08:43:16;13.77;;;4.90;;
3801;SDS011;1916;51.798;12.246;2024-03-23T08:45:18;11.80;;;4.50;;
3801;SDS011;1916;51.798;12.246;2024-03-23T08:47:19;7.57;;;3.53;;
3801;SDS011;1916;51.798;12.246;2024-03-23T08:49:20;8.83;;;3.27;;
3801;SDS011;1916;51.798;12.246;2024-03-23T08:51:21;5.33;;;2.87;;
3801;SDS011;1916;51.798;12.246;2024-03-23T08:53:22;5.13;;;2.77;;
3801;SDS011;1916;51.798;12.246;2024-03-23T08:55:23;7.83;;;3.07;;
3801;SDS011;1916;51.798;12.246;2024-03-23T08:57:24;8.23;;;3.33;;
3801;SDS011;1916;51.798;12.246;2024-03-23T08:59:26;6.13;;;3.40;;
3801;SDS011;1916;51.798;12.246;2024-03-23T09:01:27;4.70;;;3.03;;
3801;SDS011;1916;51.798;12.246;2024-03-23T09:03:28;7.50;;;3.40;;
3801;SDS011;1916;51.798;12.246;2024-03-23T09:05:29;7.17;;;3.30;;
3801;SDS011;1916;51.798;12.246;2024-03-23T09:07:36;4.33;;;2.80;;
3801;SDS011;1916;51.798;12.246;2024-03-23T09:09:38;8.40;;;3.07;;
3801;SDS011;1916;51.798;12.246;2024-03-23T09:11:40;6.50;;;3.27;;
3801;SDS011;1916;51.798;12.246;2024-03-23T09:13:41;4.77;;;3.23;;
3801;SDS011;1916;51.798;12.246;2024-03-23T09:15:49;6.60;;;2.90;;
3801;SDS011;1916;51.798;12.246;2024-03-23T09:17:51;6.77;;;2.97;;
3801;SDS011;1916;51.798;12.246;2024-03-23T09:19:52;5.07;;;2.70;;
3801;SDS011;1916;51.798;12.246;2024-03-23T09:21:53;8.67;;;3.30;;
3801;SDS011;1916;51.798;12.246;2024-03-23T09:23:54;4.70;;;2.63;;
3801;SDS011;1916;51.798;12.246;2024-03-23T09:25:55;3.87;;;2.63;;
3801;SDS011;1916;51.798;12.246;2024-03-23T09:27:57;6.10;;;3.27;;
3801;SDS011;1916;51.798;12.246;2024-03-23T09:29:59;4.90;;;3.17;;
3801;SDS011;1916;51.798;12.246;2024-03-23T09:32:00;7.80;;;3.20;;
3801;SDS011;1916;51.798;12.246;2024-03-23T09:34:01;11.50;;;3.60;;
3801;SDS011;1916;51.798;12.246;2024-03-23T09:36:06;8.13;;;3.10;;
3801;SDS011;1916;51.798;12.246;2024-03-23T09:38:07;8.20;;;3.10;;
3801;SDS011;1916;51.798;12.246;2024-03-23T09:40:10;5.73;;;3.40;;
3801;SDS011;1916;51.798;12.246;2024-03-23T09:42:12;7.90;;;3.17;;
3801;SDS011;1916;51.798;12.246;2024-03-23T09:44:13;7.33;;;3.30;;
3801;SDS011;1916;51.798;12.246;2024-03-23T09:46:14;6.17;;;3.20;;
3801;SDS011;1916;51.798;12.246;2024-03-23T09:48:15;9.23;;;3.13;;
3801;SDS011;1916;51.798;12.246;2024-03-23T09:50:16;10.70;;;3.60;;
3801;SDS011;1916;51.798;12.246;2024-03-23T09:52:18;6.43;;;3.30;;
3801;SDS011;1916;51.798;12.246;2024-03-23T09:54:19;5.00;;;3.03;;
3801;SDS011;1916;51.798;12.246;2024-03-23T09:56:21;7.23;;;3.87;;
3801;SDS011;1916;51.798;12.246;2024-03-23T09:58:23;5.97;;;3.87;;
3801;SDS011;1916;51.798;12.246;2024-03-23T10:00:24;6.20;;;3.20;;
3801;SDS011;1916;51.798;12.246;2024-03-23T10:02:26;8.00;;;3.60;;
3801;SDS011;1916;51.798;12.246;2024-03-23T10:04:37;5.63;;;3.43;;
3801;SDS011;1916;51.798;12.246;2024-03-23T10:06:38;8.60;;;4.07;;
3801;SDS011;1916;51.798;12.246;2024-03-23T10:08:39;6.27;;;4.10;;
3801;SDS011;1916;51.798;12.246;2024-03-23T10:10:40;7.53;;;3.83;;
3801;SDS011;1916;51.798;12.246;2024-03-23T10:12:45;8.30;;;3.60;;
3801;SDS011;1916;51.798;12.246;2024-03-23T10:14:48;7.30;;;4.20;;
3801;SDS011;1916;51.798;12.246;2024-03-23T10:16:49;10.10;;;3.90;;
3801;SDS011;1916;51.798;12.246;2024-03-23T10:18:50;7.73;;;3.73;;
3801;SDS011;1916;51.798;12.246;2024-03-23T10:22:53;7.43;;;3.67;;
3801;SDS011;1916;51.798;12.246;2024-03-23T10:24:54;8.87;;;3.90;;
3801;SDS011;1916;51.798;12.246;2024-03-23T10:27:09;5.07;;;3.13;;
3801;SDS011;1916;51.798;12.246;2024-03-23T10:29:11;6.17;;;3.27;;
3801;SDS011;1916;51.798;12.246;2024-03-23T10:31:13;7.60;;;3.80;;
3801;SDS011;1916;51.798;12.246;2024-03-23T10:33:14;8.37;;;3.60;;
3801;SDS011;1916;51.798;12.246;2024-03-23T10:37:19;6.13;;;3.93;;
3801;SDS011;1916;51.798;12.246;2024-03-23T10:39:21;12.63;;;6.63;;
3801;SDS011;1916;51.798;12.246;2024-03-23T10:41:22;5.80;;;4.03;;
3801;SDS011;1916;51.798;12.246;2024-03-23T10:43:24;5.07;;;3.50;;
3801;SDS011;1916;51.798;12.246;2024-03-23T10:45:25;7.47;;;3.97;;
3801;SDS011;1916;51.798;12.246;2024-03-23T10:47:26;11.47;;;5.00;;
3801;SDS011;1916;51.798;12.246;2024-03-23T10:49:34;13.03;;;6.60;;
3801;SDS011;1916;51.798;12.246;2024-03-23T10:51:37;11.07;;;5.00;;
3801;SDS011;1916;51.798;12.246;2024-03-23T10:53:38;7.57;;;4.50;;
3801;SDS011;1916;51.798;12.246;2024-03-23T10:55:39;8.87;;;4.23;;
3801;SDS011;1916;51.798;12.246;2024-03-23T10:57:45;7.30;;;3.17;;
3801;SDS011;1916;51.798;12.246;2024-03-23T10:59:50;8.00;;;3.73;;
3801;SDS011;1916;51.798;12.246;2024-03-23T11:01:57;9.43;;;3.67;;
3801;SDS011;1916;51.798;12.246;2024-03-23T11:04:00;8.97;;;3.23;;
3801;SDS011;1916;51.798;12.246;2024-03-23T11:06:01;10.10;;;3.90;;
3801;SDS011;1916;51.798;12.246;2024-03-23T11:08:03;7.23;;;3.10;;
3801;SDS011;1916;51.798;12.246;2024-03-23T11:10:06;10.10;;;3.47;;
3801;SDS011;1916;51.798;12.246;2024-03-23T11:12:30;7.10;;;3.30;;
3801;SDS011;1916;51.798;12.246;2024-03-23T11:14:34;8.60;;;3.33;;
3801;SDS011;1916;51.798;12.246;2024-03-23T11:16:35;8.33;;;3.13;;
3801;SDS011;1916;51.798;12.246;2024-03-23T11:18:38;7.70;;;3.20;;
3801;SDS011;1916;51.798;12.246;2024-03-23T11:20:39;5.97;;;3.07;;
3801;SDS011;1916;51.798;12.246;2024-03-23T11:22:41;7.37;;;3.33;;
3801;SDS011;1916;51.798;12.246;2024-03-23T11:24:49;12.80;;;3.63;;
3801;SDS011;1916;51.798;12.246;2024-03-23T11:26:51;6.97;;;3.27;;
3801;SDS011;1916;51.798;12.246;2024-03-23T11:29:08;9.17;;;3.10;;
3801;SDS011;1916;51.798;12.246;2024-03-23T11:31:10;7.20;;;3.10;;
3801;SDS011;1916;51.798;12.246;2024-03-23T11:33:11;6.93;;;4.00;;
3801;SDS011;1916;51.798;12.246;2024-03-23T11:35:26;8.67;;;3.40;;
3801;SDS011;1916;51.798;12.246;2024-03-23T11:37:27;9.07;;;3.70;;
3801;SDS011;1916;51.798;12.246;2024-03-23T11:39:28;10.27;;;3.83;;
3801;SDS011;1916;51.798;12.246;2024-03-23T11:41:29;7.60;;;3.23;;
3801;SDS011;1916;51.798;12.246;2024-03-23T11:43:30;9.67;;;3.37;;
3801;SDS011;1916;51.798;12.246;2024-03-23T11:45:38;11.60;;;4.60;;
3801;SDS011;1916;51.798;12.246;2024-03-23T11:47:40;9.17;;;3.67;;
3801;SDS011;1916;51.798;12.246;2024-03-23T11:49:42;7.30;;;3.33;;
3801;SDS011;1916;51.798;12.246;2024-03-23T11:51:43;8.03;;;3.77;;
3801;SDS011;1916;51.798;12.246;2024-03-23T11:53:44;6.93;;;3.43;;
3801;SDS011;1916;51.798;12.246;2024-03-23T11:55:52;8.63;;;4.00;;
3801;SDS011;1916;51.798;12.246;2024-03-23T11:57:54;7.90;;;3.90;;
3801;SDS011;1916;51.798;12.246;2024-03-23T11:59:55;9.93;;;3.67;;
3801;SDS011;1916;51.798;12.246;2024-03-23T12:01:56;6.47;;;4.20;;
3801;SDS011;1916;51.798;12.246;2024-03-23T12:03:57;8.07;;;3.90;;
3801;SDS011;1916;51.798;12.246;2024-03-23T12:05:59;10.17;;;3.23;;
3801;SDS011;1916;51.798;12.246;2024-03-23T12:08:18;17.53;;;4.00;;
3801;SDS011;1916;51.798;12.246;2024-03-23T12:10:20;8.40;;;3.07;;
3801;SDS011;1916;51.798;12.246;2024-03-23T12:12:21;10.40;;;4.93;;
3801;SDS011;1916;51.798;12.246;2024-03-23T12:14:22;10.37;;;3.40;;
3801;SDS011;1916;51.798;12.246;2024-03-23T12:16:24;10.60;;;2.70;;
3801;SDS011;1916;51.798;12.246;2024-03-23T12:18:27;9.90;;;3.60;;
3801;SDS011;1916;51.798;12.246;2024-03-23T12:20:28;5.80;;;2.70;;
3801;SDS011;1916;51.798;12.246;2024-03-23T12:22:29;7.33;;;2.50;;
3801;SDS011;1916;51.798;12.246;2024-03-23T12:24:31;6.20;;;3.00;;
3801;SDS011;1916;51.798;12.246;2024-03-23T12:26:34;7.00;;;3.60;;
3801;SDS011;1916;51.798;12.246;2024-03-23T12:28:36;6.23;;;2.90;;
3801;SDS011;1916;51.798;12.246;2024-03-23T12:30:41;8.90;;;2.97;;
3801;SDS011;1916;51.798;12.246;2024-03-23T12:32:42;7.60;;;2.73;;
3801;SDS011;1916;51.798;12.246;2024-03-23T12:34:44;7.30;;;3.10;;
3801;SDS011;1916;51.798;12.246;2024-03-23T12:36:45;5.10;;;3.00;;
3801;SDS011;1916;51.798;12.246;2024-03-23T12:38:46;5.93;;;3.27;;
3801;SDS011;1916;51.798;12.246;2024-03-23T12:40:47;9.57;;;3.60;;
3801;SDS011;1916;51.798;12.246;2024-03-23T12:42:49;11.00;;;3.53;;
3801;SDS011;1916;51.798;12.246;2024-03-23T12:44:50;9.50;;;3.47;;
3801;SDS011;1916;51.798;12.246;2024-03-23T12:46:51;12.37;;;3.60;;
3801;SDS011;1916;51.798;12.246;2024-03-23T12:48:52;11.40;;;3.60;;
3801;SDS011;1916;51.798;12.246;2024-03-23T12:50:56;9.93;;;3.37;;
3801;SDS011;1916;51.798;12.246;2024-03-23T12:52:57;13.80;;;4.10;;
3801;SDS011;1916;51.798;12.246;2024-03-23T12:54:58;9.10;;;3.40;;
3801;SDS011;1916;51.798;12.246;2024-03-23T12:57:00;14.23;;;3.80;;
3801;SDS011;1916;51.798;12.246;2024-03-23T12:59:01;6.90;;;2.90;;
3801;SDS011;1916;51.798;12.246;2024-03-23T13:01:02;5.90;;;3.03;;
3801;SDS011;1916;51.798;12.246;2024-03-23T13:03:03;10.93;;;3.50;;
3801;SDS011;1916;51.798;12.246;2024-03-23T13:05:05;8.97;;;3.30;;
3801;SDS011;1916;51.798;12.246;2024-03-23T13:07:08;12.70;;;3.93;;
3801;SDS011;1916;51.798;12.246;2024-03-23T13:09:09;12.67;;;3.50;;
3801;SDS011;1916;51.798;12.246;2024-03-23T13:11:11;6.30;;;3.23;;
3801;SDS011;1916;51.798;12.246;2024-03-23T13:13:13;12.00;;;3.30;;
3801;SDS011;1916;51.798;12.246;2024-03-23T13:15:14;10.43;;;3.33;;
3801;SDS011;1916;51.798;12.246;2024-03-23T13:17:17;8.80;;;3.90;;